createdAt,value
2019-05-21T00:00:03.827Z,19.30
2019-05-21T00:01:03.774Z,15.50
2019-05-21T00:02:03.766Z,14.20
2019-05-21T00:03:03.810Z,12.60
2019-05-21T00:04:03.743Z,18.20
2019-05-21T00:05:03.728Z,16.10
2019-05-21T00:06:03.721Z,12.80
2019-05-21T00:07:03.711Z,16.30
2019-05-21T00:08:03.710Z,17.60
2019-05-21T00:09:03.687Z,13.30
2019-05-21T00:10:03.680Z,14.70
2019-05-21T00:11:03.666Z,17.40
2019-05-21T00:12:03.713Z,13.80
2019-05-21T00:13:03.649Z,14.00
2019-05-21T00:14:03.631Z,11.50
2019-05-21T00:15:03.621Z,10.60
2019-05-21T00:16:03.613Z,11.30
2019-05-21T00:17:03.599Z,12.00
2019-05-21T00:18:03.591Z,14.60
2019-05-21T00:19:03.613Z,10.60
2019-05-21T00:20:03.683Z,9.80
2019-05-21T00:21:03.597Z,15.50
2019-05-21T00:22:03.627Z,16.20
2019-05-21T00:23:03.535Z,14.60
2019-05-21T00:24:03.521Z,13.10
2019-05-21T00:25:03.524Z,14.00
2019-05-21T00:26:03.502Z,16.10
2019-05-21T00:27:03.490Z,14.70
2019-05-21T00:28:03.481Z,14.70
2019-05-21T00:29:03.466Z,15.80
2019-05-21T00:30:03.464Z,18.70
2019-05-21T00:31:03.445Z,18.10
2019-05-21T00:32:03.447Z,19.30
2019-05-21T00:33:03.458Z,13.30
2019-05-21T00:34:03.412Z,14.70
2019-05-21T00:35:03.406Z,16.70
2019-05-21T00:36:03.397Z,14.10
2019-05-21T00:37:03.401Z,16.40
2019-05-21T00:38:03.380Z,12.00
2019-05-21T00:39:03.375Z,10.60
2019-05-21T00:40:03.361Z,13.40
2019-05-21T00:41:03.336Z,12.00
2019-05-21T00:42:03.337Z,14.60
2019-05-21T00:43:03.331Z,12.90
2019-05-21T00:44:03.329Z,13.40
2019-05-21T00:45:03.294Z,18.40
2019-05-21T00:46:03.286Z,10.10
2019-05-21T00:47:03.274Z,12.90
2019-05-21T00:48:05.791Z,12.60
2019-05-21T00:49:03.254Z,12.80
2019-05-21T00:50:03.250Z,13.60
2019-05-21T00:51:03.347Z,11.10
2019-05-21T00:52:08.589Z,14.20
2019-05-21T00:53:04.253Z,14.60
2019-05-21T00:54:03.205Z,14.20
2019-05-21T00:55:03.184Z,11.00
2019-05-21T00:56:03.201Z,10.10
2019-05-21T00:57:03.164Z,10.60
2019-05-21T00:58:03.161Z,13.30
2019-05-21T00:59:03.140Z,10.70
2019-05-21T01:00:03.181Z,9.80
2019-05-21T01:01:03.121Z,11.20
2019-05-21T01:02:03.108Z,11.20
2019-05-21T01:03:03.096Z,14.50
2019-05-21T01:04:03.111Z,9.90
2019-05-21T01:05:03.085Z,11.00
2019-05-21T01:06:03.064Z,10.50
2019-05-21T01:07:03.051Z,12.00
2019-05-21T01:08:03.039Z,11.70
2019-05-21T01:09:03.058Z,10.30
2019-05-21T01:10:03.044Z,14.00
2019-05-21T01:11:03.008Z,16.90
2019-05-21T01:12:02.996Z,18.10
2019-05-21T01:13:03.028Z,15.00
2019-05-21T01:14:03.054Z,14.20
2019-05-21T01:15:02.976Z,17.50
2019-05-21T01:16:02.983Z,12.50
2019-05-21T01:17:02.949Z,10.10
2019-05-21T01:18:02.934Z,13.10
2019-05-21T01:19:02.939Z,15.20
2019-05-21T01:20:03.067Z,20.20
2019-05-21T01:21:02.905Z,16.70
2019-05-21T01:22:02.889Z,14.50
2019-05-21T01:23:02.877Z,12.90
2019-05-21T01:24:02.882Z,16.80
2019-05-21T01:25:02.864Z,16.90
2019-05-21T01:26:02.854Z,12.80
2019-05-21T01:27:02.833Z,14.80
2019-05-21T01:28:02.823Z,16.00
2019-05-21T01:29:02.814Z,12.90
2019-05-21T01:30:02.804Z,15.80
2019-05-21T01:31:02.788Z,17.70
2019-05-21T01:32:03.169Z,14.10
2019-05-21T01:33:02.769Z,12.90
2019-05-21T01:34:02.764Z,15.00
2019-05-21T01:35:16.141Z,13.60
2019-05-21T01:36:03.820Z,14.50
2019-05-21T01:37:02.769Z,16.20
2019-05-21T01:38:02.717Z,18.70
2019-05-21T01:39:02.701Z,16.20
2019-05-21T01:40:02.723Z,16.50
2019-05-21T01:41:02.680Z,19.30
2019-05-21T01:42:02.705Z,16.50
2019-05-21T01:43:03.442Z,19.70
2019-05-21T01:44:02.750Z,14.00
2019-05-21T01:45:02.637Z,17.60
2019-05-21T01:46:02.630Z,18.00
2019-05-21T01:47:02.611Z,17.40
2019-05-21T01:48:02.603Z,16.90
2019-05-21T01:49:02.718Z,16.00
2019-05-21T01:50:02.584Z,17.50
2019-05-21T01:51:02.597Z,20.40
2019-05-21T01:52:02.558Z,21.70
2019-05-21T01:53:03.124Z,20.60
2019-05-21T01:54:02.538Z,18.90
2019-05-21T01:55:02.607Z,27.70
2019-05-21T01:56:02.512Z,20.30
2019-05-21T01:57:02.504Z,21.20
2019-05-21T01:58:02.503Z,19.20
2019-05-21T01:59:02.485Z,22.40
2019-05-21T02:00:02.486Z,20.10
2019-05-21T02:01:02.462Z,22.80
2019-05-21T02:02:02.476Z,19.50
2019-05-21T02:03:02.442Z,27.70
2019-05-21T02:04:02.435Z,22.60
2019-05-21T02:05:02.428Z,30.60
2019-05-21T02:06:02.411Z,27.40
2019-05-21T02:07:02.393Z,22.50
2019-05-21T02:08:02.386Z,25.60
2019-05-21T02:09:02.381Z,26.80
2019-05-21T02:10:02.381Z,25.70
2019-05-21T02:11:02.437Z,27.90
2019-05-21T02:12:02.347Z,33.90
2019-05-21T02:13:02.329Z,29.20
2019-05-21T02:14:02.321Z,22.90
2019-05-21T02:15:02.321Z,25.60
2019-05-21T02:16:02.314Z,29.20
2019-05-21T02:17:02.288Z,27.60
2019-05-21T02:18:02.319Z,30.00
2019-05-21T02:19:02.509Z,29.80
2019-05-21T02:20:02.280Z,25.80
2019-05-21T02:21:02.241Z,30.80
2019-05-21T02:22:02.234Z,27.80
2019-05-21T02:23:02.229Z,39.40
2019-05-21T02:24:02.254Z,32.10
2019-05-21T02:25:02.314Z,43.40
2019-05-21T02:26:02.255Z,34.70
2019-05-21T02:27:02.181Z,31.80
2019-05-21T02:28:02.165Z,30.70
2019-05-21T02:29:02.612Z,35.10
2019-05-21T02:30:02.663Z,42.10
2019-05-21T02:31:02.159Z,35.50
2019-05-21T02:32:02.145Z,32.90
2019-05-21T02:33:02.147Z,35.80
2019-05-21T02:34:02.132Z,31.30
2019-05-21T02:35:02.090Z,42.30
2019-05-21T02:36:02.142Z,29.20
2019-05-21T02:37:05.903Z,25.30
2019-05-21T02:38:02.054Z,25.20
2019-05-21T02:39:02.047Z,23.80
2019-05-21T02:40:02.085Z,27.40
2019-05-21T02:41:02.079Z,22.60
2019-05-21T02:42:02.010Z,21.10
2019-05-21T02:43:02.002Z,21.40
2019-05-21T02:44:01.994Z,18.30
2019-05-21T02:45:02.016Z,27.80
2019-05-21T02:46:01.979Z,13.00
2019-05-21T02:47:02.023Z,8.10
2019-05-21T02:48:01.941Z,9.00
2019-05-21T02:49:01.934Z,8.10
2019-05-21T02:50:01.948Z,10.60
2019-05-21T02:51:01.936Z,8.10
2019-05-21T02:52:01.905Z,9.60
2019-05-21T02:53:01.890Z,9.80
2019-05-21T02:54:02.008Z,11.50
2019-05-21T02:55:01.928Z,9.80
2019-05-21T02:56:01.861Z,8.20
2019-05-21T02:57:01.845Z,9.10
2019-05-21T02:58:01.828Z,8.30
2019-05-21T02:59:01.819Z,7.80
2019-05-21T03:00:01.807Z,7.10
2019-05-21T03:01:01.803Z,8.60
2019-05-21T03:02:01.788Z,7.90
2019-05-21T03:03:01.776Z,5.00
2019-05-21T03:04:01.764Z,7.40
2019-05-21T03:05:01.757Z,6.70
2019-05-21T03:06:13.043Z,6.20
2019-05-21T03:07:02.729Z,6.40
2019-05-21T03:08:01.723Z,9.20
2019-05-21T03:09:01.739Z,8.30
2019-05-21T03:10:01.698Z,6.40
2019-05-21T03:11:01.690Z,5.90
2019-05-21T03:12:01.674Z,5.90
2019-05-21T03:13:01.678Z,11.00
2019-05-21T03:14:01.683Z,6.70
2019-05-21T03:15:01.648Z,5.30
2019-05-21T03:16:01.631Z,5.60
2019-05-21T03:17:01.619Z,8.30
2019-05-21T03:18:01.610Z,4.80
2019-05-21T03:19:01.604Z,6.40
2019-05-21T03:20:01.668Z,5.50
2019-05-21T03:21:01.595Z,6.20
2019-05-21T03:22:01.590Z,4.50
2019-05-21T03:23:01.587Z,5.50
2019-05-21T03:24:01.551Z,7.30
2019-05-21T03:25:02.794Z,8.00
2019-05-21T03:26:01.522Z,6.80
2019-05-21T03:27:01.524Z,5.20
2019-05-21T03:28:01.496Z,5.30
2019-05-21T03:29:01.489Z,8.30
2019-05-21T03:30:01.547Z,5.40
2019-05-21T03:31:01.471Z,6.10
2019-05-21T03:32:01.454Z,8.70
2019-05-21T03:33:01.486Z,5.60
2019-05-21T03:34:01.466Z,4.90
2019-05-21T03:35:01.419Z,8.40
2019-05-21T03:36:01.424Z,5.80
2019-05-21T03:37:01.395Z,5.00
2019-05-21T03:38:01.386Z,5.80
2019-05-21T03:39:01.385Z,5.90
2019-05-21T03:40:01.380Z,3.40
2019-05-21T03:41:01.368Z,5.10
2019-05-21T03:42:01.342Z,5.20
2019-05-21T03:43:01.350Z,5.50
2019-05-21T03:44:01.318Z,7.80
2019-05-21T03:45:01.430Z,4.70
2019-05-21T03:46:01.305Z,4.50
2019-05-21T03:47:01.374Z,6.70
2019-05-21T03:48:01.275Z,5.10
2019-05-21T03:49:01.265Z,5.90
2019-05-21T03:50:01.269Z,5.50
2019-05-21T03:51:01.252Z,6.20
2019-05-21T03:52:01.234Z,10.00
2019-05-21T03:53:01.224Z,7.10
2019-05-21T03:54:01.208Z,9.90
2019-05-21T03:55:03.004Z,6.30
2019-05-21T03:56:01.198Z,6.40
2019-05-21T03:57:01.181Z,5.90
2019-05-21T03:58:01.236Z,6.50
2019-05-21T03:59:01.183Z,5.20
2019-05-21T04:00:01.241Z,6.30
2019-05-21T04:01:01.159Z,7.30
2019-05-21T04:02:01.134Z,6.00
2019-05-21T04:03:01.106Z,6.90
2019-05-21T04:04:01.106Z,7.00
2019-05-21T04:05:01.087Z,7.20
2019-05-21T04:06:01.082Z,7.60
2019-05-21T04:07:01.062Z,9.30
2019-05-21T04:08:01.076Z,6.60
2019-05-21T04:09:01.051Z,7.60
2019-05-21T04:10:01.049Z,6.80
2019-05-21T04:11:01.043Z,7.10
2019-05-21T04:12:01.006Z,7.30
2019-05-21T04:13:01.006Z,6.60
2019-05-21T04:14:00.991Z,6.10
2019-05-21T04:15:00.974Z,7.60
2019-05-21T04:16:01.001Z,5.40
2019-05-21T04:17:00.965Z,10.10
2019-05-21T04:18:00.984Z,5.70
2019-05-21T04:19:00.946Z,4.90
2019-05-21T04:20:00.944Z,7.00
2019-05-21T04:21:01.193Z,4.90
2019-05-21T04:22:00.909Z,6.00
2019-05-21T04:23:00.902Z,5.00
2019-05-21T04:24:00.981Z,4.60
2019-05-21T04:25:00.892Z,4.80
2019-05-21T04:26:00.858Z,2.40
2019-05-21T04:27:00.885Z,4.30
2019-05-21T04:28:00.841Z,2.80
2019-05-21T04:29:00.825Z,2.20
2019-05-21T04:30:00.814Z,2.40
2019-05-21T04:31:00.818Z,2.30
2019-05-21T04:32:00.790Z,3.00
2019-05-21T04:33:00.777Z,1.80
2019-05-21T04:34:00.768Z,2.00
2019-05-21T04:35:00.757Z,1.10
2019-05-21T04:36:00.748Z,2.70
2019-05-21T04:37:10.501Z,1.50
2019-05-21T04:38:01.721Z,1.30
2019-05-21T04:39:00.711Z,1.10
2019-05-21T04:40:00.705Z,1.30
2019-05-21T04:41:00.692Z,1.20
2019-05-21T04:42:00.682Z,1.00
2019-05-21T04:43:02.059Z,2.10
2019-05-21T04:44:00.654Z,1.20
2019-05-21T04:45:00.646Z,3.20
2019-05-21T04:46:00.635Z,1.50
2019-05-21T04:47:00.644Z,1.80
2019-05-21T04:48:00.616Z,1.60
2019-05-21T04:49:00.602Z,2.00
2019-05-21T04:50:00.683Z,2.20
2019-05-21T04:51:00.581Z,3.30
2019-05-21T04:52:00.581Z,2.30
2019-05-21T04:53:00.556Z,1.90
2019-05-21T04:54:00.560Z,1.70
2019-05-21T04:55:00.534Z,2.10
2019-05-21T04:56:00.523Z,2.10
2019-05-21T04:57:00.530Z,1.00
2019-05-21T04:58:00.499Z,1.20
2019-05-21T04:59:00.487Z,1.50
2019-05-21T05:00:00.490Z,2.10
2019-05-21T05:01:00.488Z,1.30
2019-05-21T05:02:00.475Z,3.10
2019-05-21T05:03:00.448Z,2.30
2019-05-21T05:04:00.430Z,4.00
2019-05-21T05:05:00.427Z,1.00
2019-05-21T05:06:00.407Z,2.80
2019-05-21T05:07:00.408Z,1.40
2019-05-21T05:08:00.412Z,1.00
2019-05-21T05:09:00.380Z,1.40
2019-05-21T05:10:00.385Z,2.00
2019-05-21T05:11:00.355Z,2.10
2019-05-21T05:12:00.454Z,5.70
2019-05-21T05:13:00.405Z,1.50
2019-05-21T05:14:00.327Z,3.80
2019-05-21T05:15:00.316Z,1.00
2019-05-21T05:16:03.762Z,1.40
2019-05-21T05:17:00.295Z,1.40
2019-05-21T05:18:00.275Z,1.90
2019-05-21T05:19:00.398Z,0.80
2019-05-21T05:20:00.271Z,1.20
2019-05-21T05:21:00.257Z,1.60
2019-05-21T05:22:00.264Z,1.30
2019-05-21T05:23:00.219Z,2.10
2019-05-21T05:24:00.208Z,3.20
2019-05-21T05:25:00.203Z,1.10
2019-05-21T05:26:00.184Z,0.80
2019-05-21T05:27:00.195Z,0.90
2019-05-21T05:28:00.166Z,1.40
2019-05-21T05:29:00.179Z,0.80
2019-05-21T05:30:00.145Z,1.30
2019-05-21T05:31:00.127Z,0.90
2019-05-21T05:32:00.141Z,0.80
2019-05-21T05:33:00.122Z,1.00
2019-05-21T05:34:00.099Z,1.50
2019-05-21T05:35:00.087Z,0.90
2019-05-21T05:36:00.079Z,1.00
2019-05-21T05:37:00.080Z,1.30
2019-05-21T05:38:00.053Z,1.00
2019-05-21T05:39:00.040Z,1.60
2019-05-21T05:40:00.030Z,0.80
2019-05-21T05:41:00.049Z,1.40
2019-05-21T05:42:00.028Z,1.30
2019-05-21T05:42:59.994Z,1.00
2019-05-21T05:43:59.994Z,1.80
2019-05-21T05:44:59.973Z,1.60
2019-05-21T05:45:59.963Z,1.40
2019-05-21T05:46:59.966Z,1.40
2019-05-21T05:48:00.110Z,0.80
2019-05-21T05:49:01.778Z,0.80
2019-05-21T05:49:59.921Z,1.10
2019-05-21T05:50:59.907Z,1.30
2019-05-21T05:51:59.903Z,1.60
2019-05-21T05:52:59.895Z,0.90
2019-05-21T05:53:59.875Z,0.90
2019-05-21T05:54:59.887Z,1.20
2019-05-21T05:55:59.855Z,0.90
2019-05-21T05:56:59.923Z,1.50
2019-05-21T05:57:59.838Z,1.50
2019-05-21T05:58:59.823Z,1.20
2019-05-21T05:59:59.811Z,1.50
2019-05-21T06:00:59.803Z,1.00
2019-05-21T06:01:59.787Z,1.20
2019-05-21T06:02:59.863Z,1.50
2019-05-21T06:03:59.761Z,1.50
2019-05-21T06:04:59.761Z,1.20
2019-05-21T06:05:59.746Z,1.30
2019-05-21T06:06:59.736Z,0.90
2019-05-21T06:08:00.609Z,1.00
2019-05-21T06:08:59.714Z,1.20
2019-05-21T06:09:59.697Z,1.50
2019-05-21T06:10:59.684Z,0.70
2019-05-21T06:11:59.680Z,1.20
2019-05-21T06:12:59.667Z,0.80
2019-05-21T06:13:59.652Z,1.20
2019-05-21T06:14:59.640Z,1.40
2019-05-21T06:15:59.632Z,1.30
2019-05-21T06:16:59.625Z,1.40
2019-05-21T06:17:59.612Z,1.40
2019-05-21T06:18:59.596Z,1.00
2019-05-21T06:19:59.588Z,1.20
2019-05-21T06:20:59.575Z,1.60
2019-05-21T06:21:59.563Z,3.20
2019-05-21T06:22:59.569Z,1.30
2019-05-21T06:23:59.615Z,1.90
2019-05-21T06:24:59.534Z,1.50
2019-05-21T06:25:59.586Z,0.70
2019-05-21T06:26:59.510Z,0.60
2019-05-21T06:27:59.507Z,1.70
2019-05-21T06:28:59.485Z,1.80
2019-05-21T06:29:59.476Z,0.90
2019-05-21T06:30:59.465Z,1.00
2019-05-21T06:31:59.454Z,2.50
2019-05-21T06:32:59.455Z,1.70
2019-05-21T06:33:59.434Z,0.70
2019-05-21T06:34:59.422Z,1.00
2019-05-21T06:35:59.420Z,1.60
2019-05-21T06:36:59.397Z,0.70
2019-05-21T06:38:16.159Z,1.50
2019-05-21T06:39:00.388Z,0.90
2019-05-21T06:39:59.411Z,2.90
2019-05-21T06:40:59.366Z,2.60
2019-05-21T06:41:59.340Z,1.50
2019-05-21T06:42:59.339Z,0.80
2019-05-21T06:43:59.318Z,0.70
2019-05-21T06:44:59.334Z,0.80
2019-05-21T06:45:59.366Z,0.70
2019-05-21T06:46:59.287Z,1.00
2019-05-21T06:47:59.325Z,1.70
2019-05-21T06:48:59.265Z,1.00
2019-05-21T06:49:59.253Z,1.80
2019-05-21T06:50:59.249Z,0.90
2019-05-21T06:51:59.278Z,0.90
2019-05-21T06:52:59.312Z,0.80
2019-05-21T06:53:59.220Z,1.00
2019-05-21T06:54:59.220Z,1.20
2019-05-21T06:55:59.190Z,0.70
2019-05-21T06:56:59.175Z,0.90
2019-05-21T06:57:59.170Z,3.50
2019-05-21T06:58:59.155Z,2.80
2019-05-21T06:59:59.336Z,1.10
2019-05-21T07:00:59.132Z,2.40
2019-05-21T07:01:59.120Z,1.70
2019-05-21T07:02:59.117Z,1.60
2019-05-21T07:03:59.126Z,0.90
2019-05-21T07:04:59.089Z,1.20
2019-05-21T07:05:59.670Z,1.50
2019-05-21T07:06:59.063Z,1.00
2019-05-21T07:07:59.069Z,2.80
2019-05-21T07:08:59.038Z,1.90
2019-05-21T07:09:59.026Z,2.30
2019-05-21T07:10:59.042Z,1.80
2019-05-21T07:11:59.065Z,2.30
2019-05-21T07:12:59.006Z,2.80
2019-05-21T07:13:58.992Z,2.80
2019-05-21T07:14:58.991Z,4.10
2019-05-21T07:15:58.968Z,1.30
2019-05-21T07:16:58.950Z,1.60
2019-05-21T07:17:58.942Z,1.40
2019-05-21T07:18:58.948Z,2.60
2019-05-21T07:19:58.914Z,2.10
2019-05-21T07:20:58.902Z,3.60
2019-05-21T07:22:12.274Z,2.80
2019-05-21T07:23:00.048Z,2.00
2019-05-21T07:23:58.889Z,2.40
2019-05-21T07:24:58.902Z,2.20
2019-05-21T07:25:58.849Z,2.40
2019-05-21T07:26:58.847Z,2.50
2019-05-21T07:27:58.842Z,3.40
2019-05-21T07:28:58.891Z,1.60
2019-05-21T07:29:58.887Z,2.40
2019-05-21T07:30:58.819Z,1.30
2019-05-21T07:31:58.791Z,1.70
2019-05-21T07:32:58.798Z,2.80
2019-05-21T07:33:58.762Z,1.40
2019-05-21T07:34:58.757Z,2.00
2019-05-21T07:35:58.740Z,4.80
2019-05-21T07:36:58.781Z,2.40
2019-05-21T07:37:58.771Z,5.30
2019-05-21T07:38:58.702Z,2.60
2019-05-21T07:39:58.691Z,2.70
2019-05-21T07:40:58.758Z,3.80
2019-05-21T07:41:58.669Z,1.80
2019-05-21T07:42:58.707Z,4.80
2019-05-21T07:43:58.722Z,2.90
2019-05-21T07:44:58.639Z,1.60
2019-05-21T07:45:58.622Z,2.60
2019-05-21T07:46:58.617Z,3.70
2019-05-21T07:47:58.612Z,2.30
2019-05-21T07:48:58.594Z,1.60
2019-05-21T07:49:58.583Z,2.00
2019-05-21T07:50:59.244Z,3.50
2019-05-21T07:51:58.564Z,1.90
2019-05-21T07:52:58.568Z,5.10
2019-05-21T07:53:58.542Z,2.90
2019-05-21T07:54:58.536Z,3.10
2019-05-21T07:55:58.512Z,2.90
2019-05-21T07:56:58.504Z,2.40
2019-05-21T07:57:58.556Z,2.20
2019-05-21T07:58:58.492Z,2.60
2019-05-21T07:59:58.470Z,2.60
2019-05-21T08:01:01.106Z,4.80
2019-05-21T08:01:58.456Z,3.80
2019-05-21T08:02:58.448Z,2.90
2019-05-21T08:03:58.425Z,4.10
2019-05-21T08:04:58.430Z,2.70
2019-05-21T08:05:58.403Z,3.60
2019-05-21T08:06:58.400Z,2.20
2019-05-21T08:07:58.402Z,2.00
2019-05-21T08:09:12.413Z,2.10
2019-05-21T08:09:59.359Z,3.10
2019-05-21T08:10:58.368Z,2.60
2019-05-21T08:11:58.344Z,2.30
2019-05-21T08:12:58.367Z,3.20
2019-05-21T08:13:58.321Z,3.00
2019-05-21T08:14:58.317Z,1.90
2019-05-21T08:15:58.294Z,1.90
2019-05-21T08:16:58.292Z,1.60
2019-05-21T08:17:58.283Z,2.20
2019-05-21T08:18:58.277Z,3.40
2019-05-21T08:20:08.463Z,1.50
2019-05-21T08:20:59.251Z,2.30
2019-05-21T08:21:58.228Z,2.30
2019-05-21T08:22:58.233Z,3.20
2019-05-21T08:23:58.217Z,2.80
2019-05-21T08:24:58.207Z,4.30
2019-05-21T08:25:58.220Z,2.50
2019-05-21T08:26:58.316Z,3.50
2019-05-21T08:27:58.172Z,2.80
2019-05-21T08:28:58.149Z,1.60
2019-05-21T08:29:58.143Z,3.20
2019-05-21T08:31:01.920Z,2.10
2019-05-21T08:31:58.116Z,3.20
2019-05-21T08:32:58.118Z,2.30
2019-05-21T08:33:58.097Z,2.20
2019-05-21T08:34:58.085Z,3.20
2019-05-21T08:35:58.095Z,2.60
2019-05-21T08:36:58.084Z,2.10
2019-05-21T08:37:58.083Z,1.50
2019-05-21T08:38:58.038Z,3.10
2019-05-21T08:39:58.028Z,1.70
2019-05-21T08:40:58.016Z,3.00
2019-05-21T08:41:58.011Z,5.20
2019-05-21T08:42:58.079Z,1.70
2019-05-21T08:43:57.982Z,3.00
2019-05-21T08:44:57.973Z,1.50
2019-05-21T08:45:57.967Z,5.00
2019-05-21T08:46:57.974Z,1.90
2019-05-21T08:47:57.958Z,3.20
2019-05-21T08:48:57.930Z,1.60
2019-05-21T08:49:57.917Z,1.70
2019-05-21T08:50:57.908Z,1.50
2019-05-21T08:51:57.894Z,3.10
2019-05-21T08:52:57.905Z,4.60
2019-05-21T08:53:57.886Z,1.70
2019-05-21T08:54:57.860Z,1.80
2019-05-21T08:55:57.867Z,3.90
2019-05-21T08:56:57.847Z,6.50
2019-05-21T08:58:07.047Z,1.80
2019-05-21T08:58:58.813Z,3.50
2019-05-21T08:59:57.807Z,5.50
2019-05-21T09:00:57.797Z,2.20
2019-05-21T09:01:59.114Z,1.60
2019-05-21T09:02:57.863Z,1.60
2019-05-21T09:03:57.767Z,2.40
2019-05-21T09:04:57.753Z,1.90
2019-05-21T09:05:57.736Z,1.30
2019-05-21T09:06:57.726Z,1.90
2019-05-21T09:07:57.731Z,2.20
2019-05-21T09:08:57.707Z,3.90
2019-05-21T09:09:57.705Z,2.20
2019-05-21T09:10:57.681Z,1.50
2019-05-21T09:11:57.674Z,4.80
2019-05-21T09:12:57.673Z,1.30
2019-05-21T09:13:57.660Z,4.50
2019-05-21T09:14:57.640Z,1.30
2019-05-21T09:15:57.630Z,1.50
2019-05-21T09:16:57.615Z,1.70
2019-05-21T09:17:57.602Z,1.70
2019-05-21T09:18:57.622Z,2.00
2019-05-21T09:19:57.586Z,1.80
2019-05-21T09:20:57.608Z,2.40
2019-05-21T09:21:57.559Z,1.40
2019-05-21T09:22:57.549Z,2.80
2019-05-21T09:23:57.547Z,1.50
2019-05-21T09:24:57.545Z,2.20
2019-05-21T09:25:57.579Z,1.50
2019-05-21T09:26:57.534Z,1.30
2019-05-21T09:27:57.493Z,1.70
2019-05-21T09:28:57.491Z,1.20
2019-05-21T09:29:57.474Z,3.50
2019-05-21T09:31:01.257Z,1.40
2019-05-21T09:31:57.619Z,1.20
2019-05-21T09:32:57.472Z,1.00
2019-05-21T09:33:57.432Z,1.20
2019-05-21T09:34:57.418Z,4.50
2019-05-21T09:35:57.403Z,4.50
2019-05-21T09:36:57.396Z,0.80
2019-05-21T09:37:57.380Z,1.20
2019-05-21T09:38:57.426Z,1.10
2019-05-21T09:39:57.357Z,1.10
2019-05-21T09:40:57.347Z,1.10
2019-05-21T09:41:57.335Z,1.20
2019-05-21T09:42:57.338Z,1.30
2019-05-21T09:43:57.324Z,1.10
2019-05-21T09:44:57.302Z,1.20
2019-05-21T09:45:57.300Z,1.40
2019-05-21T09:46:57.289Z,1.10
2019-05-21T09:47:57.274Z,1.10
2019-05-21T09:48:57.286Z,1.20
2019-05-21T09:49:57.245Z,1.10
2019-05-21T09:50:57.243Z,1.20
2019-05-21T09:51:57.223Z,1.30
2019-05-21T09:52:57.217Z,3.50
2019-05-21T09:53:57.215Z,4.30
2019-05-21T09:54:57.229Z,1.90
2019-05-21T09:55:57.178Z,1.40
2019-05-21T09:56:57.174Z,4.70
2019-05-21T09:57:57.155Z,1.70
2019-05-21T09:58:57.157Z,0.80
2019-05-21T09:59:57.131Z,1.10
2019-05-21T10:00:57.177Z,2.00
2019-05-21T10:01:57.115Z,1.20
2019-05-21T10:02:57.106Z,1.10
2019-05-21T10:03:57.098Z,1.70
2019-05-21T10:04:57.078Z,1.10
2019-05-21T10:05:57.069Z,3.40
2019-05-21T10:06:57.055Z,1.10
2019-05-21T10:07:57.043Z,1.10
2019-05-21T10:08:57.042Z,1.10
2019-05-21T10:09:57.021Z,1.10
2019-05-21T10:10:57.019Z,1.90
2019-05-21T10:11:57.000Z,1.40
2019-05-21T10:12:56.989Z,1.60
2019-05-21T10:13:57.035Z,2.50
2019-05-21T10:14:56.968Z,1.30
2019-05-21T10:16:01.160Z,1.60
2019-05-21T10:16:56.971Z,1.60
2019-05-21T10:17:56.933Z,2.40
2019-05-21T10:18:56.932Z,1.30
2019-05-21T10:19:59.014Z,1.00
2019-05-21T10:20:56.899Z,1.10
2019-05-21T10:21:57.222Z,1.40
2019-05-21T10:22:56.900Z,1.70
2019-05-21T10:23:56.873Z,4.20
2019-05-21T10:24:56.861Z,1.00
2019-05-21T10:25:56.843Z,1.40
2019-05-21T10:26:56.845Z,0.80
2019-05-21T10:27:56.826Z,1.30
2019-05-21T10:28:56.816Z,3.60
2019-05-21T10:29:56.884Z,2.20
2019-05-21T10:30:56.789Z,2.50
2019-05-21T10:31:56.778Z,4.00
2019-05-21T10:32:56.766Z,2.40
2019-05-21T10:33:56.766Z,3.30
2019-05-21T10:34:56.752Z,2.60
2019-05-21T10:35:56.737Z,3.20
2019-05-21T10:36:56.797Z,1.20
2019-05-21T10:37:56.712Z,2.90
2019-05-21T10:38:56.711Z,2.90
2019-05-21T10:39:56.691Z,0.80
2019-05-21T10:40:56.680Z,2.10
2019-05-21T10:41:56.678Z,3.20
2019-05-21T10:42:56.663Z,1.60
2019-05-21T10:43:56.655Z,1.10
2019-05-21T10:44:56.648Z,1.20
2019-05-21T10:45:56.624Z,1.20
2019-05-21T10:46:56.637Z,2.00
2019-05-21T10:47:56.603Z,1.80
2019-05-21T10:48:56.614Z,0.80
2019-05-21T10:49:56.608Z,0.90
2019-05-21T10:50:56.575Z,1.30
2019-05-21T10:51:56.569Z,0.60
2019-05-21T10:52:56.629Z,1.00
2019-05-21T10:53:56.546Z,0.50
2019-05-21T10:54:56.530Z,0.50
2019-05-21T10:55:56.522Z,0.60
2019-05-21T10:56:56.507Z,0.70
2019-05-21T10:57:56.507Z,0.70
2019-05-21T10:58:56.506Z,0.80
2019-05-21T10:59:56.478Z,0.40
2019-05-21T11:00:56.463Z,0.50
2019-05-21T11:01:56.463Z,1.10
2019-05-21T11:02:56.441Z,1.50
2019-05-21T11:03:56.443Z,0.80
2019-05-21T11:04:56.453Z,1.60
2019-05-21T11:06:09.743Z,2.90
2019-05-21T11:06:57.446Z,1.60
2019-05-21T11:07:56.402Z,0.90
2019-05-21T11:08:56.378Z,1.50
2019-05-21T11:09:56.487Z,0.50
2019-05-21T11:10:56.423Z,1.40
2019-05-21T11:11:56.557Z,1.70
2019-05-21T11:12:56.340Z,0.60
2019-05-21T11:13:56.328Z,0.50
2019-05-21T11:14:56.311Z,0.50
2019-05-21T11:15:56.301Z,0.90
2019-05-21T11:16:56.288Z,0.90
2019-05-21T11:18:09.907Z,0.70
2019-05-21T11:18:57.265Z,0.60
2019-05-21T11:19:56.278Z,1.40
2019-05-21T11:20:56.250Z,0.70
2019-05-21T11:21:56.306Z,1.00
2019-05-21T11:22:58.295Z,0.50
2019-05-21T11:23:56.399Z,1.80
2019-05-21T11:24:56.219Z,0.40
2019-05-21T11:25:56.202Z,1.10
2019-05-21T11:26:56.181Z,0.60
2019-05-21T11:27:56.239Z,0.40
2019-05-21T11:28:56.202Z,2.40
2019-05-21T11:29:56.157Z,0.80
2019-05-21T11:30:56.161Z,0.40
2019-05-21T11:31:57.672Z,1.30
2019-05-21T11:32:56.124Z,2.00
2019-05-21T11:33:56.106Z,1.00
2019-05-21T11:34:56.240Z,3.00
2019-05-21T11:35:56.085Z,0.40
2019-05-21T11:36:56.072Z,0.70
2019-05-21T11:37:56.088Z,1.40
2019-05-21T11:38:56.054Z,1.40
2019-05-21T11:39:56.069Z,1.20
2019-05-21T11:40:56.041Z,0.60
2019-05-21T11:41:56.070Z,0.80
2019-05-21T11:42:56.054Z,1.10
2019-05-21T11:43:56.006Z,0.60
2019-05-21T11:44:56.005Z,3.40
2019-05-21T11:45:56.010Z,0.40
2019-05-21T11:46:56.046Z,1.10
2019-05-21T11:47:56.007Z,0.60
2019-05-21T11:48:55.948Z,1.50
2019-05-21T11:49:55.943Z,1.10
2019-05-21T11:50:55.927Z,1.40
2019-05-21T11:51:55.960Z,0.30
2019-05-21T11:52:55.902Z,2.20
2019-05-21T11:53:55.885Z,0.40
2019-05-21T11:54:56.101Z,2.00
2019-05-21T11:55:55.867Z,0.30
2019-05-21T11:56:56.075Z,0.40
2019-05-21T11:57:55.847Z,0.70
2019-05-21T11:58:55.843Z,0.50
2019-05-21T11:59:55.851Z,0.40
2019-05-21T12:00:55.814Z,0.90
2019-05-21T12:01:55.841Z,0.40
2019-05-21T12:02:55.824Z,0.30
2019-05-21T12:03:55.813Z,0.50
2019-05-21T12:04:55.791Z,0.30
2019-05-21T12:05:55.754Z,2.30
2019-05-21T12:06:55.745Z,0.30
2019-05-21T12:07:55.734Z,0.40
2019-05-21T12:08:57.258Z,0.40
2019-05-21T12:09:55.725Z,0.50
2019-05-21T12:10:55.708Z,0.40
2019-05-21T12:11:55.690Z,0.40
2019-05-21T12:12:55.678Z,1.40
2019-05-21T12:13:55.666Z,0.40
2019-05-21T12:14:55.666Z,1.10
2019-05-21T12:15:55.663Z,2.60
2019-05-21T12:16:55.637Z,1.70
2019-05-21T12:17:55.623Z,1.30
2019-05-21T12:18:55.625Z,0.30
2019-05-21T12:19:55.619Z,1.10
2019-05-21T12:20:55.596Z,0.40
2019-05-21T12:21:55.579Z,2.10
2019-05-21T12:22:55.570Z,0.40
2019-05-21T12:23:55.559Z,1.40
2019-05-21T12:24:55.562Z,0.90
2019-05-21T12:25:55.567Z,0.40
2019-05-21T12:26:55.548Z,0.60
2019-05-21T12:27:55.513Z,1.00
2019-05-21T12:28:55.508Z,2.50
2019-05-21T12:29:55.516Z,0.50
2019-05-21T12:30:55.489Z,1.50
2019-05-21T12:31:55.475Z,0.50
2019-05-21T12:32:55.459Z,2.20
2019-05-21T12:33:55.447Z,0.70
2019-05-21T12:34:55.438Z,1.10
2019-05-21T12:35:55.430Z,0.50
2019-05-21T12:36:55.430Z,0.50
2019-05-21T12:37:55.410Z,0.40
2019-05-21T12:38:55.392Z,0.70
2019-05-21T12:39:55.381Z,0.40
2019-05-21T12:40:55.384Z,3.90
2019-05-21T12:41:55.367Z,0.40
2019-05-21T12:42:55.358Z,0.40
2019-05-21T12:43:55.363Z,2.90
2019-05-21T12:44:55.364Z,0.70
2019-05-21T12:45:55.330Z,0.60
2019-05-21T12:46:55.306Z,0.60
2019-05-21T12:47:55.302Z,4.40
2019-05-21T12:48:55.288Z,2.00
2019-05-21T12:49:55.273Z,1.00
2019-05-21T12:50:55.269Z,0.50
2019-05-21T12:51:55.250Z,3.20
2019-05-21T12:52:55.240Z,0.70
2019-05-21T12:53:55.230Z,0.70
2019-05-21T12:54:55.243Z,0.60
2019-05-21T12:55:55.209Z,0.40
2019-05-21T12:56:55.195Z,0.70
2019-05-21T12:57:55.184Z,0.60
2019-05-21T12:58:55.221Z,1.00
2019-05-21T12:59:55.166Z,0.40
2019-05-21T13:00:55.180Z,0.70
2019-05-21T13:01:55.167Z,0.40
2019-05-21T13:02:55.132Z,0.60
2019-05-21T13:03:55.562Z,0.90
2019-05-21T13:04:55.114Z,0.50
2019-05-21T13:05:55.114Z,0.40
2019-05-21T13:06:55.088Z,0.50
2019-05-21T13:07:55.084Z,1.80
2019-05-21T13:08:55.066Z,0.60
2019-05-21T13:09:55.056Z,3.40
2019-05-21T13:10:55.054Z,1.00
2019-05-21T13:11:55.034Z,0.60